sensor_id;sensor_type;location;lat;lon;timestamp;pressure;altitude;pressure_sealevel;temperature;humidity
71970;BME280;59838;52.152;5.436;2024-03-23T00:55:14;101116.25;;;6.48;100.00
71970;BME280;59838;52.152;5.436;2024-03-23T00:57:39;101112.81;;;6.48;100.00
71970;BME280;59838;52.152;5.436;2024-03-23T01:00:05;101114.47;;;6.49;100.00
71970;BME280;59838;52.152;5.436;2024-03-23T01:02:32;101112.16;;;6.46;100.00
71970;BME280;59838;52.152;5.436;2024-03-23T01:04:57;101110.53;;;6.45;100.00
71970;BME280;59838;52.152;5.436;2024-03-23T01:07:23;101112.31;;;6.44;100.00
71970;BME280;59838;52.152;5.436;2024-03-23T01:09:49;101114.09;;;6.44;100.00
71970;BME280;59838;52.152;5.436;2024-03-23T01:12:14;101112.47;;;6.43;100.00
71970;BME280;59838;52.152;5.436;2024-03-23T01:14:40;101108.94;;;6.44;100.00
71970;BME280;59838;52.152;5.436;2024-03-23T01:17:05;101099.41;;;6.44;100.00
71970;BME280;59838;52.152;5.436;2024-03-23T01:19:31;101100.38;;;6.43;100.00
71970;BME280;59838;52.152;5.436;2024-03-23T01:21:56;101090.88;;;6.44;100.00
71970;BME280;59838;52.152;5.436;2024-03-23T01:24:22;101094.41;;;6.43;100.00
71970;BME280;59838;52.152;5.436;2024-03-23T01:26:47;101086.81;;;6.41;100.00
71970;BME280;59838;52.152;5.436;2024-03-23T01:29:13;101085.06;;;6.42;100.00
71970;BME280;59838;52.152;5.436;2024-03-23T01:31:38;101078.25;;;6.40;100.00
71970;BME280;59838;52.152;5.436;2024-03-23T01:34:04;101075.69;;;6.40;100.00
71970;BME280;59838;52.152;5.436;2024-03-23T01:36:29;101079.34;;;6.38;100.00
71970;BME280;59838;52.152;5.436;2024-03-23T01:38:55;101070.00;;;6.37;100.00
71970;BME280;59838;52.152;5.436;2024-03-23T01:41:20;101070.31;;;6.34;100.00
71970;BME280;59838;52.152;5.436;2024-03-23T01:43:46;101064.50;;;6.32;100.00
71970;BME280;59838;52.152;5.436;2024-03-23T01:46:13;101059.91;;;6.26;100.00
71970;BME280;59838;52.152;5.436;2024-03-23T01:48:38;101047.75;;;6.18;100.00
71970;BME280;59838;52.152;5.436;2024-03-23T01:51:04;101051.06;;;6.10;100.00
71970;BME280;59838;52.152;5.436;2024-03-23T01:53:30;101045.69;;;6.03;100.00
71970;BME280;59838;52.152;5.436;2024-03-23T01:55:56;101046.28;;;5.97;100.00
71970;BME280;59838;52.152;5.436;2024-03-23T01:58:22;101043.72;;;5.88;100.00
71970;BME280;59838;52.152;5.436;2024-03-23T02:00:48;101049.47;;;5.81;100.00
71970;BME280;59838;52.152;5.436;2024-03-23T02:03:26;101045.19;;;5.72;100.00
71970;BME280;59838;52.152;5.436;2024-03-23T02:05:53;101039.00;;;5.65;100.00
71970;BME280;59838;52.152;5.436;2024-03-23T02:08:20;101041.47;;;5.57;100.00
71970;BME280;59838;52.152;5.436;2024-03-23T02:10:49;101038.66;;;5.50;100.00
71970;BME280;59838;52.152;5.436;2024-03-23T02:13:17;101044.38;;;5.44;100.00
71970;BME280;59838;52.152;5.436;2024-03-23T02:15:43;101046.59;;;5.39;100.00
71970;BME280;59838;52.152;5.436;2024-03-23T02:18:08;101050.56;;;5.33;100.00
71970;BME280;59838;52.152;5.436;2024-03-23T02:20:35;101041.63;;;5.27;100.00
71970;BME280;59838;52.152;5.436;2024-03-23T02:23:01;101036.38;;;5.19;100.00
71970;BME280;59838;52.152;5.436;2024-03-23T02:25:26;101043.72;;;5.14;100.00
71970;BME280;59838;52.152;5.436;2024-03-23T02:27:52;101037.22;;;5.10;100.00
71970;BME280;59838;52.152;5.436;2024-03-23T02:30:19;101034.25;;;5.05;100.00
71970;BME280;59838;52.152;5.436;2024-03-23T02:32:45;101025.22;;;5.01;100.00
71970;BME280;59838;52.152;5.436;2024-03-23T02:35:11;101024.00;;;4.95;100.00
71970;BME280;59838;52.152;5.436;2024-03-23T02:37:37;101027.94;;;4.89;100.00
71970;BME280;59838;52.152;5.436;2024-03-23T02:40:02;101024.69;;;4.87;100.00
71970;BME280;59838;52.152;5.436;2024-03-23T02:42:28;101021.44;;;4.85;100.00
71970;BME280;59838;52.152;5.436;2024-03-23T02:44:54;101020.94;;;4.82;100.00
71970;BME280;59838;52.152;5.436;2024-03-23T02:47:19;101022.84;;;4.80;100.00
71970;BME280;59838;52.152;5.436;2024-03-23T02:49:45;101030.00;;;4.76;100.00
71970;BME280;59838;52.152;5.436;2024-03-23T02:52:10;101025.97;;;4.73;100.00
71970;BME280;59838;52.152;5.436;2024-03-23T02:54:36;101020.81;;;4.73;100.00
71970;BME280;59838;52.152;5.436;2024-03-23T02:57:02;101021.63;;;4.74;100.00
71970;BME280;59838;52.152;5.436;2024-03-23T02:59:28;101020.28;;;4.70;100.00
71970;BME280;59838;52.152;5.436;2024-03-23T03:01:53;101024.75;;;4.68;100.00
71970;BME280;59838;52.152;5.436;2024-03-23T03:04:19;101021.63;;;4.64;100.00
71970;BME280;59838;52.152;5.436;2024-03-23T03:06:47;101025.16;;;4.63;100.00
71970;BME280;59838;52.152;5.436;2024-03-23T03:09:13;101023.69;;;4.61;100.00
71970;BME280;59838;52.152;5.436;2024-03-23T03:11:39;101030.75;;;4.58;100.00
71970;BME280;59838;52.152;5.436;2024-03-23T03:14:04;101026.66;;;4.56;100.00
71970;BME280;59838;52.152;5.436;2024-03-23T03:16:32;101016.78;;;4.51;100.00
71970;BME280;59838;52.152;5.436;2024-03-23T03:18:58;101026.53;;;4.48;100.00
71970;BME280;59838;52.152;5.436;2024-03-23T03:21:23;101021.66;;;4.45;100.00
71970;BME280;59838;52.152;5.436;2024-03-23T03:23:49;101020.31;;;4.40;100.00
71970;BME280;59838;52.152;5.436;2024-03-23T03:26:16;101023.31;;;4.36;100.00
71970;BME280;59838;52.152;5.436;2024-03-23T03:28:43;101026.44;;;4.30;100.00
71970;BME280;59838;52.152;5.436;2024-03-23T03:31:09;101025.75;;;4.28;100.00
71970;BME280;59838;52.152;5.436;2024-03-23T03:33:35;101022.63;;;4.24;100.00
71970;BME280;59838;52.152;5.436;2024-03-23T03:36:00;101011.81;;;4.20;100.00
71970;BME280;59838;52.152;5.436;2024-03-23T03:38:26;101017.22;;;4.17;100.00
71970;BME280;59838;52.152;5.436;2024-03-23T03:40:51;101008.84;;;4.15;100.00
71970;BME280;59838;52.152;5.436;2024-03-23T03:43:18;101007.47;;;4.11;100.00
71970;BME280;59838;52.152;5.436;2024-03-23T03:45:51;101007.78;;;4.08;100.00
71970;BME280;59838;52.152;5.436;2024-03-23T03:48:17;101007.34;;;4.03;100.00
71970;BME280;59838;52.152;5.436;2024-03-23T03:50:42;100995.84;;;3.97;100.00
71970;BME280;59838;52.152;5.436;2024-03-23T03:53:08;100995.31;;;3.94;100.00
71970;BME280;59838;52.152;5.436;2024-03-23T03:55:33;100995.72;;;3.89;100.00
71970;BME280;59838;52.152;5.436;2024-03-23T03:57:59;101004.50;;;3.87;100.00
71970;BME280;59838;52.152;5.436;2024-03-23T04:00:24;100999.63;;;3.83;100.00
71970;BME280;59838;52.152;5.436;2024-03-23T04:02:50;100996.38;;;3.81;100.00
71970;BME280;59838;52.152;5.436;2024-03-23T04:05:16;100995.97;;;3.76;100.00
71970;BME280;59838;52.152;5.436;2024-03-23T04:07:42;100994.47;;;3.74;100.00
71970;BME280;59838;52.152;5.436;2024-03-23T04:10:08;100994.75;;;3.71;100.00
71970;BME280;59838;52.152;5.436;2024-03-23T04:12:36;100989.06;;;3.67;100.00
71970;BME280;59838;52.152;5.436;2024-03-23T04:15:03;100987.72;;;3.63;100.00
71970;BME280;59838;52.152;5.436;2024-03-23T04:17:30;100980.28;;;3.60;100.00
71970;BME280;59838;52.152;5.436;2024-03-23T04:20:01;100980.66;;;3.55;100.00
71970;BME280;59838;52.152;5.436;2024-03-23T04:22:27;100986.06;;;3.52;100.00
71970;BME280;59838;52.152;5.436;2024-03-23T04:24:56;100984.56;;;3.50;100.00
71970;BME280;59838;52.152;5.436;2024-03-23T04:27:25;100977.81;;;3.48;100.00
71970;BME280;59838;52.152;5.436;2024-03-23T04:29:51;100983.75;;;3.49;100.00
71970;BME280;59838;52.152;5.436;2024-03-23T04:32:18;100977.81;;;3.48;100.00
71970;BME280;59838;52.152;5.436;2024-03-23T04:34:44;100978.75;;;3.47;100.00
71970;BME280;59838;52.152;5.436;2024-03-23T04:37:11;100972.81;;;3.47;100.00
71970;BME280;59838;52.152;5.436;2024-03-23T04:39:36;100976.31;;;3.46;100.00
71970;BME280;59838;52.152;5.436;2024-03-23T04:42:02;100980.78;;;3.44;100.00
71970;BME280;59838;52.152;5.436;2024-03-23T04:44:28;100974.00;;;3.43;100.00
71970;BME280;59838;52.152;5.436;2024-03-23T04:46:54;100984.41;;;3.41;100.00
71970;BME280;59838;52.152;5.436;2024-03-23T04:49:20;100984.28;;;3.43;100.00
71970;BME280;59838;52.152;5.436;2024-03-23T04:51:45;100989.97;;;3.46;100.00
71970;BME280;59838;52.152;5.436;2024-03-23T04:54:12;100982.56;;;3.53;100.00
71970;BME280;59838;52.152;5.436;2024-03-23T04:56:38;100975.25;;;3.58;100.00
71970;BME280;59838;52.152;5.436;2024-03-23T04:59:03;100976.88;;;3.59;100.00
71970;BME280;59838;52.152;5.436;2024-03-23T05:01:33;100970.25;;;3.57;100.00
71970;BME280;59838;52.152;5.436;2024-03-23T05:03:59;100970.38;;;3.55;100.00
71970;BME280;59838;52.152;5.436;2024-03-23T05:06:25;100968.22;;;3.51;100.00
71970;BME280;59838;52.152;5.436;2024-03-23T05:08:51;100978.22;;;3.44;100.00
71970;BME280;59838;52.152;5.436;2024-03-23T05:11:17;100976.03;;;3.39;100.00
71970;BME280;59838;52.152;5.436;2024-03-23T05:13:43;100979.00;;;3.35;100.00
71970;BME280;59838;52.152;5.436;2024-03-23T05:16:08;100974.38;;;3.28;100.00
71970;BME280;59838;52.152;5.436;2024-03-23T05:18:34;100973.97;;;3.23;100.00
71970;BME280;59838;52.152;5.436;2024-03-23T05:21:00;100977.63;;;3.21;100.00
71970;BME280;59838;52.152;5.436;2024-03-23T05:23:26;100977.88;;;3.18;100.00
71970;BME280;59838;52.152;5.436;2024-03-23T05:25:52;100978.13;;;3.15;100.00
71970;BME280;59838;52.152;5.436;2024-03-23T05:28:18;100980.00;;;3.13;100.00
71970;BME280;59838;52.152;5.436;2024-03-23T05:30:53;100982.72;;;3.11;100.00
71970;BME280;59838;52.152;5.436;2024-03-23T05:33:19;100989.72;;;3.09;100.00
71970;BME280;59838;52.152;5.436;2024-03-23T05:35:46;100988.91;;;3.08;100.00
71970;BME280;59838;52.152;5.436;2024-03-23T05:38:16;100984.59;;;3.09;100.00
71970;BME280;59838;52.152;5.436;2024-03-23T05:40:41;100983.53;;;3.11;100.00
71970;BME280;59838;52.152;5.436;2024-03-23T05:43:07;100989.75;;;3.19;100.00
71970;BME280;59838;52.152;5.436;2024-03-23T05:45:33;100977.91;;;3.27;100.00
71970;BME280;59838;52.152;5.436;2024-03-23T05:47:58;100981.03;;;3.41;100.00
71970;BME280;59838;52.152;5.436;2024-03-23T05:50:24;100977.59;;;3.71;100.00
71970;BME280;59838;52.152;5.436;2024-03-23T05:52:49;100976.91;;;4.28;100.00
71970;BME280;59838;52.152;5.436;2024-03-23T05:55:15;100967.28;;;4.77;100.00
71970;BME280;59838;52.152;5.436;2024-03-23T05:57:41;100966.16;;;5.17;100.00
71970;BME280;59838;52.152;5.436;2024-03-23T06:00:07;100963.50;;;5.55;100.00
71970;BME280;59838;52.152;5.436;2024-03-23T06:02:44;100971.53;;;5.52;100.00
71970;BME280;59838;52.152;5.436;2024-03-23T06:05:11;100960.53;;;5.31;100.00
71970;BME280;59838;52.152;5.436;2024-03-23T06:07:37;100967.50;;;4.93;100.00
71970;BME280;59838;52.152;5.436;2024-03-23T06:10:03;100972.06;;;4.62;100.00
71970;BME280;59838;52.152;5.436;2024-03-23T06:12:29;100975.63;;;4.42;100.00
71970;BME280;59838;52.152;5.436;2024-03-23T06:14:54;100974.31;;;4.28;100.00
71970;BME280;59838;52.152;5.436;2024-03-23T06:17:20;100973.25;;;4.20;100.00
71970;BME280;59838;52.152;5.436;2024-03-23T06:19:46;100970.81;;;4.19;100.00
71970;BME280;59838;52.152;5.436;2024-03-23T06:22:12;100969.03;;;4.19;100.00
71970;BME280;59838;52.152;5.436;2024-03-23T06:24:37;100972.44;;;4.20;100.00
71970;BME280;59838;52.152;5.436;2024-03-23T06:27:03;100970.66;;;4.20;100.00
71970;BME280;59838;52.152;5.436;2024-03-23T06:29:29;100967.28;;;4.30;100.00
71970;BME280;59838;52.152;5.436;2024-03-23T06:31:55;100964.13;;;4.55;100.00
71970;BME280;59838;52.152;5.436;2024-03-23T06:34:21;100950.81;;;5.25;100.00
71970;BME280;59838;52.152;5.436;2024-03-23T06:36:48;100950.25;;;5.85;100.00
71970;BME280;59838;52.152;5.436;2024-03-23T06:39:15;100950.19;;;6.66;100.00
71970;BME280;59838;52.152;5.436;2024-03-23T06:41:52;100942.53;;;7.66;100.00
71970;BME280;59838;52.152;5.436;2024-03-23T06:44:18;100949.91;;;8.68;100.00
71970;BME280;59838;52.152;5.436;2024-03-23T06:46:44;100950.16;;;9.75;100.00
71970;BME280;59838;52.152;5.436;2024-03-23T06:49:10;100943.06;;;10.45;100.00
71970;BME280;59838;52.152;5.436;2024-03-23T06:51:35;100938.66;;;10.90;100.00
71970;BME280;59838;52.152;5.436;2024-03-23T06:54:03;100946.53;;;11.55;94.84
71970;BME280;59838;52.152;5.436;2024-03-23T06:56:29;100941.31;;;11.77;88.31
71970;BME280;59838;52.152;5.436;2024-03-23T06:58:54;100949.06;;;11.92;84.64
71970;BME280;59838;52.152;5.436;2024-03-23T07:01:20;100944.50;;;12.57;83.40
71970;BME280;59838;52.152;5.436;2024-03-23T07:03:46;100939.88;;;13.07;77.05
71970;BME280;59838;52.152;5.436;2024-03-23T07:06:12;100948.56;;;13.28;75.15
71970;BME280;59838;52.152;5.436;2024-03-23T07:08:37;100951.16;;;12.31;76.40
71970;BME280;59838;52.152;5.436;2024-03-23T07:11:03;100951.97;;;12.32;80.38
71970;BME280;59838;52.152;5.436;2024-03-23T07:13:28;100947.22;;;13.39;75.28
71970;BME280;59838;52.152;5.436;2024-03-23T07:15:55;100939.81;;;14.02;70.14
71970;BME280;59838;52.152;5.436;2024-03-23T07:18:23;100945.00;;;14.22;66.69
71970;BME280;59838;52.152;5.436;2024-03-23T07:20:55;100938.78;;;14.17;69.11
71970;BME280;59838;52.152;5.436;2024-03-23T07:23:22;100939.28;;;14.59;67.21
71970;BME280;59838;52.152;5.436;2024-03-23T07:25:58;100939.94;;;14.99;65.70
71970;BME280;59838;52.152;5.436;2024-03-23T07:28:24;100935.22;;;15.22;62.50
71970;BME280;59838;52.152;5.436;2024-03-23T07:31:06;100943.22;;;15.27;63.98
71970;BME280;59838;52.152;5.436;2024-03-23T07:33:35;100945.97;;;15.39;61.98
71970;BME280;59838;52.152;5.436;2024-03-23T07:36:00;100946.69;;;15.21;60.95
71970;BME280;59838;52.152;5.436;2024-03-23T07:38:27;100946.53;;;14.63;63.86
71970;BME280;59838;52.152;5.436;2024-03-23T07:41:07;100942.59;;;14.93;64.67
71970;BME280;59838;52.152;5.436;2024-03-23T07:43:32;100949.03;;;14.97;62.93
71970;BME280;59838;52.152;5.436;2024-03-23T07:45:59;100949.28;;;13.83;63.98
71970;BME280;59838;52.152;5.436;2024-03-23T07:48:25;100935.59;;;13.75;67.31
71970;BME280;59838;52.152;5.436;2024-03-23T07:53:22;100955.44;;;11.24;74.48
71970;BME280;59838;52.152;5.436;2024-03-23T07:55:55;100952.66;;;10.59;78.42
71970;BME280;59838;52.152;5.436;2024-03-23T07:58:21;100953.44;;;10.45;80.44
71970;BME280;59838;52.152;5.436;2024-03-23T08:00:46;100949.50;;;10.34;82.02
71970;BME280;59838;52.152;5.436;2024-03-23T08:03:12;100956.44;;;10.19;84.50
71970;BME280;59838;52.152;5.436;2024-03-23T08:05:37;100943.09;;;10.22;85.59
71970;BME280;59838;52.152;5.436;2024-03-23T08:08:03;100944.31;;;9.96;86.98
71970;BME280;59838;52.152;5.436;2024-03-23T08:10:29;100947.16;;;9.86;87.42
71970;BME280;59838;52.152;5.436;2024-03-23T08:12:54;100941.13;;;9.86;88.50
71970;BME280;59838;52.152;5.436;2024-03-23T08:15:20;100941.19;;;9.78;88.42
71970;BME280;59838;52.152;5.436;2024-03-23T08:17:45;100946.75;;;9.75;88.95
71970;BME280;59838;52.152;5.436;2024-03-23T08:20:11;100945.00;;;9.67;87.18
71970;BME280;59838;52.152;5.436;2024-03-23T08:22:37;100940.53;;;9.61;88.03
71970;BME280;59838;52.152;5.436;2024-03-23T08:25:02;100942.63;;;9.65;88.33
71970;BME280;59838;52.152;5.436;2024-03-23T08:27:46;100945.16;;;9.74;88.02
71970;BME280;59838;52.152;5.436;2024-03-23T08:30:12;100940.47;;;9.69;86.78
71970;BME280;59838;52.152;5.436;2024-03-23T08:32:37;100942.19;;;9.77;85.19
71970;BME280;59838;52.152;5.436;2024-03-23T08:35:03;100948.81;;;9.56;86.97
71970;BME280;59838;52.152;5.436;2024-03-23T08:37:29;100948.03;;;9.24;87.33
71970;BME280;59838;52.152;5.436;2024-03-23T08:39:55;100945.91;;;8.96;87.88
71970;BME280;59838;52.152;5.436;2024-03-23T08:42:20;100948.44;;;8.73;88.95
71970;BME280;59838;52.152;5.436;2024-03-23T08:44:47;100946.03;;;8.72;90.05
71970;BME280;59838;52.152;5.436;2024-03-23T08:47:17;100950.56;;;8.70;87.67
71970;BME280;59838;52.152;5.436;2024-03-23T08:49:44;100947.34;;;8.59;88.13
71970;BME280;59838;52.152;5.436;2024-03-23T08:52:09;100949.50;;;8.48;88.59
71970;BME280;59838;52.152;5.436;2024-03-23T08:54:35;100946.59;;;8.26;88.93
71970;BME280;59838;52.152;5.436;2024-03-23T08:57:01;100955.16;;;8.18;91.19
71970;BME280;59838;52.152;5.436;2024-03-23T08:59:26;100956.41;;;8.39;92.68
71970;BME280;59838;52.152;5.436;2024-03-23T09:01:52;100950.69;;;8.76;92.97
71970;BME280;59838;52.152;5.436;2024-03-23T09:04:18;100948.63;;;8.72;90.01
71970;BME280;59838;52.152;5.436;2024-03-23T09:06:43;100936.28;;;8.74;87.56
71970;BME280;59838;52.152;5.436;2024-03-23T09:09:09;100943.50;;;8.95;88.57
71970;BME280;59838;52.152;5.436;2024-03-23T09:11:34;100937.47;;;9.03;85.02
71970;BME280;59838;52.152;5.436;2024-03-23T09:14:00;100937.50;;;8.94;83.21
71970;BME280;59838;52.152;5.436;2024-03-23T09:16:26;100950.53;;;8.78;81.25
71970;BME280;59838;52.152;5.436;2024-03-23T09:18:52;100942.34;;;8.50;81.13
71970;BME280;59838;52.152;5.436;2024-03-23T09:21:18;100951.56;;;8.28;79.91
71970;BME280;59838;52.152;5.436;2024-03-23T09:23:44;100941.91;;;8.13;80.28
71970;BME280;59838;52.152;5.436;2024-03-23T09:26:10;100943.84;;;7.95;81.57
71970;BME280;59838;52.152;5.436;2024-03-23T09:28:35;100939.63;;;7.77;83.68
71970;BME280;59838;52.152;5.436;2024-03-23T09:31:05;100937.06;;;7.69;86.56
71970;BME280;59838;52.152;5.436;2024-03-23T09:33:31;100938.38;;;7.73;89.65
71970;BME280;59838;52.152;5.436;2024-03-23T09:35:56;100939.84;;;7.84;90.38
71970;BME280;59838;52.152;5.436;2024-03-23T09:38:25;100936.41;;;8.16;93.00
71970;BME280;59838;52.152;5.436;2024-03-23T09:40:53;100936.88;;;8.45;92.93
71970;BME280;59838;52.152;5.436;2024-03-23T09:43:19;100936.56;;;8.31;91.58
71970;BME280;59838;52.152;5.436;2024-03-23T09:45:45;100932.19;;;8.15;93.20
71970;BME280;59838;52.152;5.436;2024-03-23T09:48:12;100928.47;;;8.10;93.93
71970;BME280;59838;52.152;5.436;2024-03-23T09:50:42;100943.53;;;7.98;94.49
71970;BME280;59838;52.152;5.436;2024-03-23T09:53:10;100936.72;;;7.88;94.73
71970;BME280;59838;52.152;5.436;2024-03-23T09:55:37;100938.69;;;7.86;95.72
71970;BME280;59838;52.152;5.436;2024-03-23T09:58:04;100927.97;;;8.22;96.02
71970;BME280;59838;52.152;5.436;2024-03-23T10:00:33;100925.34;;;8.64;95.69
71970;BME280;59838;52.152;5.436;2024-03-23T10:02:59;100933.59;;;8.99;96.65
71970;BME280;59838;52.152;5.436;2024-03-23T10:05:28;100919.00;;;9.29;95.66
71970;BME280;59838;52.152;5.436;2024-03-23T10:07:54;100919.97;;;9.59;93.85
71970;BME280;59838;52.152;5.436;2024-03-23T10:10:20;100916.59;;;9.74;92.53
71970;BME280;59838;52.152;5.436;2024-03-23T10:12:49;100910.06;;;10.16;91.85
71970;BME280;59838;52.152;5.436;2024-03-23T10:15:19;100900.16;;;10.49;89.76
71970;BME280;59838;52.152;5.436;2024-03-23T10:17:46;100892.88;;;10.74;90.81
71970;BME280;59838;52.152;5.436;2024-03-23T10:20:13;100914.13;;;10.48;85.94
71970;BME280;59838;52.152;5.436;2024-03-23T10:22:39;100931.84;;;9.92;83.91
71970;BME280;59838;52.152;5.436;2024-03-23T10:25:09;100925.72;;;9.23;79.79
71970;BME280;59838;52.152;5.436;2024-03-23T10:27:34;100917.31;;;8.82;81.40
71970;BME280;59838;52.152;5.436;2024-03-23T10:30:11;100913.41;;;8.86;83.85
71970;BME280;59838;52.152;5.436;2024-03-23T10:32:38;100917.28;;;9.21;84.10
71970;BME280;59838;52.152;5.436;2024-03-23T10:35:17;100913.19;;;9.73;83.35
71970;BME280;59838;52.152;5.436;2024-03-23T10:37:47;100905.50;;;10.18;82.92
71970;BME280;59838;52.152;5.436;2024-03-23T10:40:15;100906.44;;;10.40;81.34
71970;BME280;59838;52.152;5.436;2024-03-23T10:42:41;100912.91;;;10.06;79.01
71970;BME280;59838;52.152;5.436;2024-03-23T10:45:07;100912.53;;;9.56;78.72
71970;BME280;59838;52.152;5.436;2024-03-23T10:47:34;100906.22;;;9.27;82.04
71970;BME280;59838;52.152;5.436;2024-03-23T10:50:01;100912.13;;;9.13;79.31
71970;BME280;59838;52.152;5.436;2024-03-23T10:52:27;100915.28;;;9.00;79.07
71970;BME280;59838;52.152;5.436;2024-03-23T10:54:52;100916.28;;;8.99;80.85
71970;BME280;59838;52.152;5.436;2024-03-23T10:57:21;100909.22;;;8.85;80.95
71970;BME280;59838;52.152;5.436;2024-03-23T10:59:49;100929.84;;;8.70;83.92
71970;BME280;59838;52.152;5.436;2024-03-23T11:02:19;100926.94;;;8.65;85.44
71970;BME280;59838;52.152;5.436;2024-03-23T11:04:45;100926.56;;;8.76;86.46
71970;BME280;59838;52.152;5.436;2024-03-23T11:07:32;100919.13;;;9.36;87.16
71970;BME280;59838;52.152;5.436;2024-03-23T11:09:59;100915.16;;;9.71;85.22
71970;BME280;59838;52.152;5.436;2024-03-23T11:12:30;100908.00;;;10.11;81.52
71970;BME280;59838;52.152;5.436;2024-03-23T11:17:30;100896.16;;;9.94;80.36
71970;BME280;59838;52.152;5.436;2024-03-23T11:20:00;100905.75;;;9.70;81.54
71970;BME280;59838;52.152;5.436;2024-03-23T11:25:23;100913.06;;;9.66;82.15
71970;BME280;59838;52.152;5.436;2024-03-23T11:27:51;100913.09;;;9.43;82.37
71970;BME280;59838;52.152;5.436;2024-03-23T11:30:17;100906.31;;;9.57;85.08
71970;BME280;59838;52.152;5.436;2024-03-23T11:32:47;100903.50;;;10.05;84.25
71970;BME280;59838;52.152;5.436;2024-03-23T11:35:32;100887.88;;;10.58;81.38
71970;BME280;59838;52.152;5.436;2024-03-23T11:38:15;100904.44;;;10.72;84.64
71970;BME280;59838;52.152;5.436;2024-03-23T11:40:44;100900.13;;;10.79;83.21
71970;BME280;59838;52.152;5.436;2024-03-23T11:43:13;100891.47;;;10.57;81.43
71970;BME280;59838;52.152;5.436;2024-03-23T11:45:46;100891.84;;;10.01;77.92
71970;BME280;59838;52.152;5.436;2024-03-23T11:48:17;100897.00;;;9.71;79.23
71970;BME280;59838;52.152;5.436;2024-03-23T11:50:50;100888.25;;;9.72;77.27
71970;BME280;59838;52.152;5.436;2024-03-23T11:53:21;100877.97;;;9.94;78.36
71970;BME280;59838;52.152;5.436;2024-03-23T11:55:57;100874.06;;;10.13;74.22
71970;BME280;59838;52.152;5.436;2024-03-23T11:58:24;100882.25;;;10.39;73.61
71970;BME280;59838;52.152;5.436;2024-03-23T12:00:51;100872.81;;;10.68;73.67
71970;BME280;59838;52.152;5.436;2024-03-23T12:03:18;100872.88;;;11.11;73.80
71970;BME280;59838;52.152;5.436;2024-03-23T12:05:50;100878.31;;;11.38;74.47
71970;BME280;59838;52.152;5.436;2024-03-23T12:08:32;100880.75;;;11.40;76.79
71970;BME280;59838;52.152;5.436;2024-03-23T12:11:10;100898.00;;;10.68;72.74
71970;BME280;59838;52.152;5.436;2024-03-23T12:13:37;100884.00;;;10.09;70.88
71970;BME280;59838;52.152;5.436;2024-03-23T12:16:19;100882.56;;;9.68;71.58
71970;BME280;59838;52.152;5.436;2024-03-23T12:18:46;100876.09;;;9.49;73.21
71970;BME280;59838;52.152;5.436;2024-03-23T12:21:12;100862.66;;;9.69;71.69
71970;BME280;59838;52.152;5.436;2024-03-23T12:23:41;100873.13;;;9.76;70.25
71970;BME280;59838;52.152;5.436;2024-03-23T12:26:08;100857.91;;;9.87;70.27
71970;BME280;59838;52.152;5.436;2024-03-23T12:28:34;100860.25;;;9.97;70.16
71970;BME280;59838;52.152;5.436;2024-03-23T12:30:59;100858.44;;;9.83;70.64
71970;BME280;59838;52.152;5.436;2024-03-23T12:33:25;100872.03;;;9.70;70.98
71970;BME280;59838;52.152;5.436;2024-03-23T12:35:51;100859.06;;;9.70;71.56
71970;BME280;59838;52.152;5.436;2024-03-23T12:38:17;100854.25;;;9.82;70.81
71970;BME280;59838;52.152;5.436;2024-03-23T12:40:46;100851.16;;;10.16;70.82
71970;BME280;59838;52.152;5.436;2024-03-23T12:43:14;100848.28;;;10.56;69.49
71970;BME280;59838;52.152;5.436;2024-03-23T12:45:39;100856.94;;;10.78;69.62
71970;BME280;59838;52.152;5.436;2024-03-23T12:48:05;100851.88;;;10.91;68.37
71970;BME280;59838;52.152;5.436;2024-03-23T12:50:31;100855.78;;;10.81;68.18
71970;BME280;59838;52.152;5.436;2024-03-23T12:52:56;100853.31;;;10.42;65.97
71970;BME280;59838;52.152;5.436;2024-03-23T12:55:22;100861.34;;;9.88;66.52
71970;BME280;59838;52.152;5.436;2024-03-23T12:57:47;100860.91;;;9.61;67.60
71970;BME280;59838;52.152;5.436;2024-03-23T13:00:13;100860.53;;;9.49;68.30
71970;BME280;59838;52.152;5.436;2024-03-23T13:02:41;100852.19;;;9.39;68.80
71970;BME280;59838;52.152;5.436;2024-03-23T13:05:07;100854.72;;;9.24;69.36
71970;BME280;59838;52.152;5.436;2024-03-23T13:07:34;100857.53;;;9.14;69.59
71970;BME280;59838;52.152;5.436;2024-03-23T13:10:00;100859.38;;;9.06;69.33
71970;BME280;59838;52.152;5.436;2024-03-23T13:12:26;100856.06;;;9.20;70.30
71970;BME280;59838;52.152;5.436;2024-03-23T13:14:51;100868.53;;;9.63;69.15
71970;BME280;59838;52.152;5.436;2024-03-23T13:17:17;100848.63;;;9.93;68.58
71970;BME280;59838;52.152;5.436;2024-03-23T13:19:43;100847.59;;;10.32;70.61
71970;BME280;59838;52.152;5.436;2024-03-23T13:22:08;100847.91;;;10.59;68.43
71970;BME280;59838;52.152;5.436;2024-03-23T13:24:37;100842.00;;;10.65;66.43
71970;BME280;59838;52.152;5.436;2024-03-23T13:27:03;100845.31;;;10.29;67.85
71970;BME280;59838;52.152;5.436;2024-03-23T13:29:29;100866.97;;;9.92;68.62
71970;BME280;59838;52.152;5.436;2024-03-23T13:31:55;100873.00;;;9.54;68.07
71970;BME280;59838;52.152;5.436;2024-03-23T13:34:21;100883.91;;;9.18;70.13
71970;BME280;59838;52.152;5.436;2024-03-23T13:36:47;100861.25;;;8.89;70.77
71970;BME280;59838;52.152;5.436;2024-03-23T13:39:14;100849.69;;;8.76;72.22
71970;BME280;59838;52.152;5.436;2024-03-23T13:41:43;100853.06;;;8.77;71.75
71970;BME280;59838;52.152;5.436;2024-03-23T13:44:11;100859.16;;;8.84;72.56
71970;BME280;59838;52.152;5.436;2024-03-23T13:46:37;100852.88;;;9.10;73.30
71970;BME280;59838;52.152;5.436;2024-03-23T13:49:03;100854.34;;;9.50;72.95
71970;BME280;59838;52.152;5.436;2024-03-23T13:51:29;100846.47;;;9.82;70.90
71970;BME280;59838;52.152;5.436;2024-03-23T13:53:55;100849.78;;;9.91;69.13